createdAt,value
2022-08-29T00:02:49.981Z,75.64
2022-08-29T00:05:53.258Z,75.63
2022-08-29T00:08:57.361Z,75.68
2022-08-29T00:12:00.594Z,75.71
2022-08-29T00:15:06.682Z,75.72
2022-08-29T00:18:09.756Z,75.74
2022-08-29T00:21:13.162Z,75.83
2022-08-29T00:24:17.110Z,75.77
2022-08-29T00:27:20.062Z,75.72
2022-08-29T00:30:24.021Z,75.69
2022-08-29T00:33:27.033Z,75.60
2022-08-29T00:36:30.470Z,75.61
2022-08-29T00:39:33.563Z,75.55
2022-08-29T00:42:37.997Z,75.57
2022-08-29T00:45:53.284Z,75.54
2022-08-29T00:49:01.950Z,75.60
2022-08-29T00:52:11.384Z,75.54
2022-08-29T00:55:22.580Z,75.44
2022-08-29T00:58:31.032Z,75.36
2022-08-29T01:01:34.046Z,75.33
2022-08-29T01:04:37.884Z,75.37
2022-08-29T01:07:41.455Z,75.29
2022-08-29T01:11:03.055Z,75.29
2022-08-29T01:14:06.121Z,75.21
2022-08-29T01:17:10.535Z,75.36
2022-08-29T01:20:55.326Z,75.21
2022-08-29T01:24:27.016Z,75.19
2022-08-29T01:27:34.464Z,75.07
2022-08-29T01:30:56.028Z,75.02
2022-08-29T01:33:59.709Z,75.12
2022-08-29T01:37:05.916Z,75.04
2022-08-29T01:40:10.089Z,74.91
2022-08-29T01:43:13.085Z,74.80
2022-08-29T01:46:20.758Z,74.88
2022-08-29T01:49:24.886Z,74.85
2022-08-29T01:52:28.211Z,74.74
2022-08-29T01:55:31.131Z,74.78
2022-08-29T01:58:33.993Z,74.80
2022-08-29T02:01:40.010Z,74.76
2022-08-29T02:04:46.126Z,74.67
2022-08-29T02:07:49.691Z,74.61
2022-08-29T02:10:52.957Z,74.72
2022-08-29T02:13:58.525Z,74.64
2022-08-29T02:17:02.857Z,74.64
2022-08-29T02:20:08.470Z,74.60
2022-08-29T02:23:29.948Z,74.68
2022-08-29T02:26:34.412Z,74.66
2022-08-29T02:29:38.421Z,74.64
2022-08-29T02:32:41.490Z,74.58
2022-08-29T02:35:46.138Z,74.49
2022-08-29T02:38:49.882Z,74.57
2022-08-29T02:41:53.031Z,74.48
2022-08-29T02:44:56.972Z,74.49
2022-08-29T02:47:59.958Z,74.51
2022-08-29T02:51:02.872Z,74.54
2022-08-29T02:54:05.907Z,74.54
2022-08-29T02:57:08.814Z,74.51
2022-08-29T03:00:18.318Z,74.51
2022-08-29T03:03:21.274Z,74.60
2022-08-29T03:06:24.278Z,74.56
2022-08-29T03:09:27.153Z,74.50
2022-08-29T03:12:30.193Z,74.47
2022-08-29T03:15:35.442Z,74.50
2022-08-29T03:18:38.732Z,74.55
2022-08-29T03:21:43.569Z,74.50
2022-08-29T03:24:46.455Z,74.39
2022-08-29T03:27:49.536Z,74.40
2022-08-29T03:30:52.446Z,74.37
2022-08-29T03:33:56.698Z,74.31
2022-08-29T03:36:59.943Z,74.23
2022-08-29T03:40:05.975Z,74.20
2022-08-29T03:43:10.464Z,74.17
2022-08-29T03:46:13.382Z,74.23
2022-08-29T03:49:16.323Z,74.25
2022-08-29T03:52:19.236Z,74.09
2022-08-29T03:55:22.231Z,74.00
2022-08-29T03:58:25.341Z,73.98
2022-08-29T04:01:29.697Z,74.01
2022-08-29T04:04:50.852Z,73.90
2022-08-29T04:07:58.907Z,73.83
2022-08-29T04:11:01.846Z,73.73
2022-08-29T04:14:04.849Z,73.74
2022-08-29T04:17:10.306Z,73.69
2022-08-29T04:20:14.272Z,73.69
2022-08-29T04:23:17.170Z,73.67
2022-08-29T04:26:36.455Z,73.70
2022-08-29T04:29:39.990Z,73.75
2022-08-29T04:32:44.548Z,73.60
2022-08-29T04:35:47.504Z,73.56
2022-08-29T04:38:50.650Z,73.53
2022-08-29T04:41:53.592Z,73.49
2022-08-29T04:44:57.469Z,73.49
2022-08-29T04:48:03.529Z,73.53
2022-08-29T04:51:06.816Z,73.37
2022-08-29T04:54:10.002Z,73.32
2022-08-29T04:57:12.903Z,73.28
2022-08-29T05:00:19.890Z,73.27
2022-08-29T05:03:23.735Z,73.28
2022-08-29T05:06:26.755Z,73.21
2022-08-29T05:09:29.768Z,73.19
2022-08-29T05:12:33.858Z,73.21
2022-08-29T05:15:38.782Z,73.16
2022-08-29T05:18:44.293Z,73.06
2022-08-29T05:21:47.309Z,73.00
2022-08-29T05:24:53.539Z,72.96
2022-08-29T05:27:56.489Z,73.12
2022-08-29T05:31:00.387Z,73.12
2022-08-29T05:34:32.024Z,73.08
2022-08-29T05:37:28.119Z,73.01
2022-08-29T05:40:31.485Z,72.97
2022-08-29T05:43:35.018Z,73.04
2022-08-29T05:46:37.950Z,72.88
2022-08-29T05:49:43.048Z,72.75
2022-08-29T05:52:45.964Z,72.71
2022-08-29T05:55:49.026Z,72.74
2022-08-29T05:58:52.030Z,72.67
2022-08-29T06:01:54.967Z,72.51
2022-08-29T06:04:59.408Z,72.56
2022-08-29T06:08:02.795Z,72.61
2022-08-29T06:11:05.936Z,72.53
2022-08-29T06:14:08.915Z,72.51
2022-08-29T06:25:39.807Z,72.28
2022-08-29T06:28:45.953Z,72.10
2022-08-29T06:31:47.559Z,71.98
2022-08-29T06:34:49.488Z,72.05
2022-08-29T06:37:51.019Z,72.00
2022-08-29T06:40:52.634Z,71.79
2022-08-29T06:43:56.199Z,71.77
2022-08-29T06:46:58.528Z,71.79
2022-08-29T06:50:00.232Z,71.53
2022-08-29T06:53:26.090Z,71.46
2022-08-29T06:56:23.863Z,71.28
2022-08-29T06:59:28.283Z,71.27
2022-08-29T07:02:30.001Z,70.97
2022-08-29T07:05:32.640Z,70.97
2022-08-29T07:08:35.331Z,70.76
2022-08-29T07:11:41.256Z,71.19
2022-08-29T07:14:43.245Z,70.88
2022-08-29T07:17:45.303Z,70.45
2022-08-29T07:20:46.872Z,70.29
2022-08-29T07:23:49.836Z,70.45
2022-08-29T07:26:51.924Z,69.67
2022-08-29T07:29:53.464Z,69.95
2022-08-29T07:32:55.199Z,70.03
2022-08-29T07:36:01.027Z,69.68
2022-08-29T07:39:09.988Z,69.17
2022-08-29T07:42:11.628Z,69.19
2022-08-29T07:45:17.496Z,68.55
2022-08-29T07:48:22.938Z,68.36
2022-08-29T07:51:26.158Z,67.53
2022-08-29T07:54:27.803Z,67.53
2022-08-29T07:57:29.446Z,66.97
2022-08-29T08:00:31.384Z,66.93
2022-08-29T08:03:33.493Z,66.38
2022-08-29T08:06:36.140Z,66.85
2022-08-29T08:09:37.873Z,66.00
2022-08-29T08:12:39.516Z,66.28
2022-08-29T08:15:41.138Z,65.87
2022-08-29T08:18:44.031Z,66.24
2022-08-29T08:21:49.848Z,65.64
2022-08-29T08:24:52.668Z,65.27
2022-08-29T08:27:55.346Z,65.70
2022-08-29T08:31:03.600Z,65.35
2022-08-29T08:34:07.407Z,65.04
2022-08-29T08:37:10.091Z,64.85
2022-08-29T08:40:53.811Z,65.05
2022-08-29T08:43:59.998Z,64.83
2022-08-29T08:47:07.128Z,64.74
2022-08-29T08:50:16.512Z,64.27
2022-08-29T08:53:36.707Z,64.09
2022-08-29T08:56:43.692Z,63.34
2022-08-29T08:59:58.469Z,63.50
2022-08-29T09:03:25.682Z,62.65
2022-08-29T09:06:48.276Z,62.32
2022-08-29T09:10:08.543Z,61.73
2022-08-29T09:13:32.767Z,61.74
2022-08-29T09:16:40.622Z,60.92
2022-08-29T09:19:43.783Z,60.41
2022-08-29T09:22:58.313Z,60.21
2022-08-29T09:25:59.956Z,60.70
2022-08-29T09:29:01.751Z,60.39
2022-08-29T09:32:17.759Z,60.74
2022-08-29T09:35:30.370Z,59.54
2022-08-29T09:38:35.206Z,59.43
2022-08-29T09:41:37.123Z,59.43
2022-08-29T09:44:39.785Z,59.01
2022-08-29T09:47:41.693Z,59.58
2022-08-29T09:50:43.375Z,58.93
2022-08-29T09:53:45.013Z,59.01
2022-08-29T09:56:51.993Z,58.98
2022-08-29T10:00:13.824Z,58.77
2022-08-29T10:03:22.129Z,57.84
2022-08-29T10:06:30.683Z,57.21
2022-08-29T10:09:32.299Z,56.99
2022-08-29T10:12:42.665Z,55.96
2022-08-29T10:16:02.750Z,56.21
2022-08-29T10:19:12.821Z,56.51
2022-08-29T10:22:38.140Z,56.11
2022-08-29T10:25:40.818Z,56.05
2022-08-29T10:29:11.131Z,55.07
2022-08-29T10:32:42.630Z,54.28
2022-08-29T10:36:00.616Z,54.33
2022-08-29T10:39:15.378Z,53.51
2022-08-29T10:42:21.252Z,53.94
2022-08-29T10:45:39.438Z,52.76
2022-08-29T10:48:48.445Z,52.18
2022-08-29T10:52:16.427Z,52.02
2022-08-29T10:55:51.960Z,52.91
2022-08-29T10:58:56.742Z,52.52
2022-08-29T11:02:09.853Z,52.46
2022-08-29T11:05:21.559Z,51.92
2022-08-29T11:08:30.245Z,52.01
2022-08-29T11:11:33.493Z,51.38
2022-08-29T11:15:01.670Z,51.71
2022-08-29T11:18:36.211Z,51.38
2022-08-29T11:21:51.097Z,51.34
2022-08-29T11:25:04.931Z,51.22
2022-08-29T11:28:34.179Z,50.91
2022-08-29T11:32:11.661Z,49.98
2022-08-29T11:35:20.038Z,49.98
2022-08-29T11:38:33.595Z,50.67
2022-08-29T11:41:41.337Z,49.45
2022-08-29T11:44:53.569Z,49.19
2022-08-29T11:48:01.163Z,48.96
2022-08-29T11:51:40.889Z,48.38
2022-08-29T11:54:42.449Z,49.07
2022-08-29T11:57:45.616Z,49.01
2022-08-29T12:00:50.794Z,49.42
2022-08-29T12:03:55.344Z,48.88
2022-08-29T12:07:01.193Z,48.81
2022-08-29T12:10:10.688Z,48.45
2022-08-29T12:13:47.582Z,47.85
2022-08-29T12:16:52.932Z,48.04
2022-08-29T12:20:07.074Z,48.20
2022-08-29T12:23:17.882Z,47.96
2022-08-29T12:26:37.983Z,47.95
2022-08-29T12:29:44.562Z,47.23
2022-08-29T12:32:57.546Z,48.18
2022-08-29T12:36:06.798Z,47.45
2022-08-29T12:39:20.809Z,47.11
2022-08-29T12:42:44.696Z,47.52
2022-08-29T12:45:48.457Z,46.86
2022-08-29T12:48:57.500Z,46.64
2022-08-29T12:52:04.871Z,46.60
2022-08-29T12:55:28.912Z,46.45
2022-08-29T12:58:38.367Z,46.57
2022-08-29T13:01:40.153Z,46.67
2022-08-29T13:04:43.183Z,46.65
2022-08-29T13:07:57.824Z,46.94
2022-08-29T13:11:02.798Z,46.64
2022-08-29T13:14:10.485Z,46.90
2022-08-29T13:17:14.698Z,46.72
2022-08-29T13:20:47.760Z,47.22
2022-08-29T13:24:02.552Z,47.93
2022-08-29T13:27:06.471Z,47.60
2022-08-29T13:30:08.848Z,47.10
2022-08-29T13:33:34.579Z,46.88
2022-08-29T13:36:59.122Z,47.05
2022-08-29T13:40:32.919Z,47.00
2022-08-29T13:43:42.618Z,46.71
2022-08-29T13:46:46.713Z,46.14
2022-08-29T13:49:49.264Z,46.00
2022-08-29T13:52:52.800Z,46.25
2022-08-29T13:55:54.496Z,46.31
2022-08-29T13:58:57.178Z,45.40
2022-08-29T14:02:15.281Z,45.52
2022-08-29T14:05:17.554Z,45.24
2022-08-29T14:08:19.399Z,44.95
2022-08-29T14:11:20.926Z,44.59
2022-08-29T14:14:22.594Z,44.67
2022-08-29T14:17:24.394Z,44.53
2022-08-29T14:20:26.036Z,44.48
2022-08-29T14:23:27.851Z,44.54
2022-08-29T14:26:29.363Z,44.19
2022-08-29T14:29:33.700Z,44.67
2022-08-29T14:32:35.930Z,44.90
2022-08-29T14:35:37.538Z,45.36
2022-08-29T14:38:44.146Z,45.84
2022-08-29T14:41:46.003Z,45.32
2022-08-29T14:44:47.814Z,45.40
2022-08-29T14:47:49.451Z,45.34
2022-08-29T14:50:51.116Z,45.76
2022-08-29T14:53:54.483Z,45.85
2022-08-29T14:56:56.510Z,45.95
2022-08-29T14:59:58.213Z,46.23
2022-08-29T15:03:00.753Z,45.85
2022-08-29T15:06:05.172Z,46.25
2022-08-29T15:09:06.735Z,46.31
2022-08-29T15:12:10.232Z,46.95
2022-08-29T15:15:21.326Z,46.47
2022-08-29T15:19:31.619Z,46.37
2022-08-29T15:21:59.354Z,46.93
2022-08-29T15:25:02.986Z,46.75
2022-08-29T15:28:05.208Z,47.32
2022-08-29T15:31:07.181Z,47.19
2022-08-29T15:34:09.464Z,46.60
2022-08-29T15:37:11.634Z,46.66
2022-08-29T15:40:13.986Z,46.85
2022-08-29T15:43:15.731Z,46.69
2022-08-29T15:46:18.496Z,46.75
2022-08-29T15:49:22.573Z,46.60
2022-08-29T15:52:26.422Z,46.52
2022-08-29T15:55:28.172Z,46.86
2022-08-29T15:58:29.804Z,47.42
2022-08-29T16:01:41.328Z,47.64
2022-08-29T16:04:46.835Z,47.70
2022-08-29T16:07:48.386Z,47.45
2022-08-29T16:10:50.011Z,47.62
2022-08-29T16:14:08.401Z,46.93
2022-08-29T16:17:15.431Z,47.25
2022-08-29T16:20:16.995Z,47.60
2022-08-29T16:23:18.802Z,47.53
2022-08-29T16:26:22.263Z,47.83
2022-08-29T16:29:26.846Z,47.83
2022-08-29T16:32:28.847Z,47.98
2022-08-29T16:35:30.529Z,47.92
2022-08-29T16:38:33.880Z,48.32
2022-08-29T16:41:36.067Z,48.37
2022-08-29T16:44:38.290Z,48.32
2022-08-29T16:47:40.259Z,48.46
2022-08-29T16:50:45.945Z,48.66
2022-08-29T16:53:47.752Z,48.88
2022-08-29T16:56:49.496Z,49.22
2022-08-29T16:59:51.051Z,50.04
2022-08-29T17:02:52.619Z,50.59
2022-08-29T17:05:54.216Z,50.97
2022-08-29T17:08:56.664Z,51.68
2022-08-29T17:11:59.211Z,51.92
2022-08-29T17:15:04.078Z,52.36
2022-08-29T17:18:06.459Z,52.62
2022-08-29T17:21:08.326Z,52.34
2022-08-29T17:24:11.394Z,53.22
2022-08-29T17:27:17.140Z,53.82
2022-08-29T17:30:22.461Z,54.18
2022-08-29T17:33:26.313Z,54.41
2022-08-29T17:36:39.971Z,54.65
2022-08-29T17:39:45.173Z,55.19
2022-08-29T17:42:53.109Z,55.46
2022-08-29T17:45:56.871Z,55.70
2022-08-29T17:48:58.619Z,56.07
2022-08-29T17:52:00.263Z,56.28
2022-08-29T17:55:06.994Z,56.42
2022-08-29T17:58:09.153Z,56.67
2022-08-29T18:01:16.214Z,56.96
2022-08-29T18:04:18.879Z,57.12
2022-08-29T18:07:23.585Z,57.37
2022-08-29T18:10:26.721Z,56.98
2022-08-29T18:13:28.365Z,57.48
2022-08-29T18:16:30.234Z,57.78
2022-08-29T18:19:31.803Z,57.98
2022-08-29T18:22:33.498Z,58.16
2022-08-29T18:25:35.801Z,58.24
2022-08-29T18:28:37.362Z,58.35
2022-08-29T18:31:41.280Z,58.56
2022-08-29T18:34:43.291Z,58.61
2022-08-29T18:37:46.386Z,58.80
2022-08-29T18:40:53.187Z,58.85
2022-08-29T18:43:55.456Z,59.08
2022-08-29T18:46:57.085Z,59.24
2022-08-29T18:50:17.047Z,59.46
2022-08-29T18:53:21.078Z,59.58
2022-08-29T18:56:22.755Z,59.91
2022-08-29T18:59:24.485Z,59.99
2022-08-29T19:02:26.704Z,60.11
2022-08-29T19:05:31.470Z,60.24
2022-08-29T19:08:33.215Z,60.44
2022-08-29T19:11:34.781Z,60.91
2022-08-29T19:14:45.818Z,61.31
2022-08-29T19:17:48.065Z,61.31
2022-08-29T19:21:02.213Z,61.28
2022-08-29T19:24:04.001Z,61.24
2022-08-29T19:27:17.827Z,61.35
2022-08-29T19:30:28.847Z,61.24
2022-08-29T19:33:31.424Z,61.35
2022-08-29T19:36:34.959Z,61.43
2022-08-29T19:39:36.802Z,61.54
2022-08-29T19:42:38.732Z,61.75
2022-08-29T19:45:42.453Z,61.77
2022-08-29T19:52:04.613Z,62.08
2022-08-29T19:55:09.869Z,62.24
2022-08-29T19:58:11.528Z,62.37
2022-08-29T20:01:16.129Z,62.59
2022-08-29T20:04:18.240Z,62.87
2022-08-29T20:07:20.434Z,62.74
2022-08-29T20:10:24.889Z,62.74
2022-08-29T20:13:32.845Z,62.70
2022-08-29T20:16:37.579Z,62.84
2022-08-29T20:19:40.143Z,62.92
2022-08-29T20:22:41.823Z,63.00
2022-08-29T20:25:45.492Z,63.04
2022-08-29T20:28:48.063Z,63.35
2022-08-29T20:31:50.237Z,63.39
2022-08-29T20:34:51.714Z,63.39
2022-08-29T20:37:53.352Z,63.07
2022-08-29T20:40:55.220Z,63.23
2022-08-29T20:44:00.099Z,63.35
2022-08-29T20:47:02.069Z,63.30
2022-08-29T20:50:09.891Z,63.33
2022-08-29T20:53:14.333Z,63.51
2022-08-29T20:56:32.984Z,63.41
2022-08-29T20:59:37.768Z,63.48
2022-08-29T21:03:00.737Z,63.52
2022-08-29T21:06:04.296Z,63.73
2022-08-29T21:09:05.941Z,63.86
2022-08-29T21:12:07.815Z,63.88
2022-08-29T21:15:13.065Z,63.93
2022-08-29T21:18:16.552Z,64.00
2022-08-29T21:21:24.868Z,63.77
2022-08-29T21:24:28.248Z,63.96
2022-08-29T21:27:30.088Z,63.92
2022-08-29T21:30:32.660Z,64.22
2022-08-29T21:33:39.337Z,64.33
2022-08-29T21:36:41.292Z,64.42
2022-08-29T21:39:45.904Z,64.45
2022-08-29T21:42:47.656Z,64.38
2022-08-29T21:45:49.215Z,64.61
2022-08-29T21:48:56.986Z,64.62
2022-08-29T21:51:58.723Z,64.57
2022-08-29T21:55:01.220Z,64.50
2022-08-29T21:58:03.157Z,64.81
2022-08-29T22:01:05.409Z,64.72
2022-08-29T22:04:10.166Z,64.72
2022-08-29T22:07:12.653Z,64.78
2022-08-29T22:10:19.695Z,64.81
2022-08-29T22:13:21.356Z,64.93
2022-08-29T22:16:29.384Z,65.03
2022-08-29T22:19:31.734Z,65.08
2022-08-29T22:22:34.282Z,65.12
2022-08-29T22:25:36.155Z,65.27
2022-08-29T22:28:37.755Z,65.41
2022-08-29T22:31:42.283Z,65.34
2022-08-29T22:34:44.289Z,65.32
2022-08-29T22:37:45.876Z,65.28
2022-08-29T22:40:47.435Z,65.24
2022-08-29T22:43:54.675Z,65.19
2022-08-29T22:47:10.688Z,65.20
2022-08-29T22:50:15.860Z,65.24
2022-08-29T22:53:17.822Z,65.37
2022-08-29T22:56:19.497Z,65.46
2022-08-29T22:59:21.331Z,65.43
2022-08-29T23:02:23.011Z,65.48
2022-08-29T23:05:24.894Z,65.57
2022-08-29T23:08:26.440Z,65.58
2022-08-29T23:11:28.103Z,65.60
2022-08-29T23:14:29.664Z,65.59
2022-08-29T23:17:31.212Z,65.54
2022-08-29T23:20:32.683Z,65.59
2022-08-29T23:23:34.864Z,65.68
2022-08-29T23:26:37.124Z,65.75
2022-08-29T23:29:41.795Z,65.81
2022-08-29T23:32:43.582Z,65.97
2022-08-29T23:35:45.152Z,66.12
2022-08-29T23:38:47.270Z,66.09
2022-08-29T23:41:51.850Z,66.00
2022-08-29T23:44:53.353Z,66.04
2022-08-29T23:47:54.860Z,66.27
2022-08-29T23:50:56.484Z,66.08
2022-08-29T23:53:58.124Z,65.90
2022-08-29T23:56:59.632Z,65.79
